Terminal Aerodrome Forecast
Issued by NWS Tulsa, OK

Home | Current Version | Previous Version | Text Only | Print | Product List | Glossary On
Versions: 1 2 3 4 5 6 7 8 9 10 11 12 13 14 15 16 17
000
FTUS44 KTSA 050500
TAFFSM
TAF
KFSM 050537Z 0506/0606 01010KT 6SM -SN BKN040 OVC080
      TEMPO 0506/0509 3SM -SN OVC035
     FM051000 36008KT P6SM OVC100
     FM051400 36007KT P6SM SCT150=

USA.gov is the U.S. government's official web portal to all federal, state and local government web resources and services.